Vronskiy — C4AY2 — position and weather

sailwx.info

Track history (hours):
 
Tides and Currents Weather Stations Pressure Air Temp Water Temp Dewpoint Dewpoint Depression Visibility Wind Speed Wind Dir Waves Ship Positions

Vronskiy

Last reported at 2014-Oct-23 07:34 UTC. Time now 2014-Oct-23 10:14 UTC.
Position N 35°57' W 005°30'.

Length 131 m; draft 5.2 m.

Type: Passenger vessel. MMSI: 210030000.

Date/timePositionNaut miles runAvg speedWind from/ knotsBaromVisibWave heightAir tempDewpointWater temp
2014-Oct-23 07:34N 35°57' W 005°30'12 1.4
2014-Oct-22 22:33N 36°09' W 005°26'13 2.5
2014-Oct-22 17:21N 35°56' W 005°30'1114.0
2014-Oct-22 16:33N 36°06' W 005°24'3 1.2
2014-Oct-22 14:16N 36°08' W 005°26'6 8.9
2014-Oct-22 13:32N 36°02' W 005°24'5 1.5
2014-Oct-22 10:33N 35°58' W 005°28'10 9.6
2014-Oct-22 09:33N 36°08' W 005°26'0 0.0
2014-Oct-22 08:33N 36°08' W 005°26'0 0.3
2014-Oct-22 07:33N 36°08' W 005°26'1212.1
2014-Oct-22 06:34N 35°56' W 005°28'3 0.3
2014-Oct-21 20:32N 35°59' W 005°28'9 3.0
2014-Oct-21 17:31N 36°08' W 005°26'1111.0
2014-Oct-21 16:33N 35°57' W 005°27'3 1.3
2014-Oct-21 14:07N 35°57' W 005°31'915.3
2014-Oct-21 13:32N 36°04' W 005°24'5 2.7
2014-Oct-21 11:33N 36°09' W 005°25'12 3.1
2014-Oct-21 07:33N 35°57' W 005°30'5 0.3
2014-Oct-20 16:33N 36°01' W 005°26'2 0.7
2014-Oct-20 13:23N 35°59' W 005°25'3 0.9
2014-Oct-20 10:28N 36°01' W 005°26'7 2.4
2014-Oct-20 07:33N 36°08' W 005°26'1111.0
2014-Oct-20 06:34N 35°57' W 005°27'2 0.2
2014-Oct-19 20:33N 35°57' W 005°30'11 5.5
2014-Oct-19 18:30N 36°08' W 005°26'1010.3
2014-Oct-19 17:33N 35°58' W 005°26'4 2.0
2014-Oct-19 15:31N 35°56' W 005°31'1313.4
2014-Oct-19 14:33N 36°09' W 005°25'1 0.5
2014-Oct-19 12:05N 36°08' W 005°26'7 8.3
2014-Oct-19 11:12N 36°01' W 005°23'6 1.6
2014-Oct-19 07:33N 35°58' W 005°29'10 1.9
2014-Oct-19 02:06N 36°08' W 005°26'910.3
2014-Oct-19 01:13N 35°59' W 005°25'4 1.0
2014-Oct-18 20:30N 35°56' W 005°30'1313.0
2014-Oct-18 19:31N 36°09' W 005°26'0 0.1
2014-Oct-18 17:33N 36°09' W 005°26'15 4.7
2014-Oct-18 14:16N 35°54' W 005°31'1014.5
2014-Oct-18 13:33N 36°03' W 005°25'5 4.9
2014-Oct-18 12:28N 36°08' W 005°26'9 7.1
2014-Oct-18 11:13N 35°59' W 005°26'4 1.2
2014-Oct-18 07:33N 35°56' W 005°30'3 0.2
2014-Oct-17 16:33N 35°59' W 005°28'9 8.5
2014-Oct-17 15:31N 36°08' W 005°26'0 0.0
2014-Oct-17 14:21N 36°08' W 005°26'7 8.5
2014-Oct-17 13:31N 36°01' W 005°25'2 0.7
2014-Oct-17 10:33N 35°60' W 005°27'6 1.7
2014-Oct-17 07:16N 36°05' W 005°23'10 1.0
2014-Oct-16 21:14N 35°56' W 005°30'1015.3
2014-Oct-16 20:33N 36°05' W 005°24'4 1.8
2014-Oct-16 18:33N 36°08' W 005°26'7 7.0
2014-Oct-16 17:30N 36°01' W 005°25'6 2.1
2014-Oct-16 14:29N 35°56' W 005°30'1313.8
2014-Oct-16 13:33N 36°08' W 005°24'2 1.5
2014-Oct-16 12:31N 36°08' W 005°26'0 0.0
2014-Oct-16 11:33N 36°08' W 005°26'9 8.8
2014-Oct-16 10:33N 35°59' W 005°25'5 1.6
2014-Oct-16 07:32N 35°56' W 005°30'1313.4
2014-Oct-16 06:33N 36°09' W 005°25'1 0.3
2014-Oct-16 02:29N 36°08' W 005°26'0 0.0
2014-Oct-16 01:17N 36°08' W 005°26'0 0.0
2014-Oct-15 23:17N 36°08' W 005°26'1 1.8
2014-Oct-15 22:33N 36°09' W 005°25'13 2.5
2014-Oct-15 17:17N 35°56' W 005°30'1013.7
2014-Oct-15 16:33N 36°05' W 005°24'4 2.0
2014-Oct-15 14:33N 36°08' W 005°26'1110.9
2014-Oct-15 13:33N 35°57' W 005°27'3 1.0
2014-Oct-15 10:33N 35°60' W 005°26'9 3.1
2014-Oct-15 07:34N 36°09' W 005°26'14 1.2
2014-Oct-14 20:26N 35°56' W 005°30'1314.5
2014-Oct-14 19:33N 36°08' W 005°24'1 0.6
2014-Oct-14 17:21N 36°08' W 005°26'8 8.7
2014-Oct-14 16:24N 35°60' W 005°25'8 3.6
2014-Oct-14 14:16N 35°54' W 005°31'1013.8
2014-Oct-14 13:33N 36°02' W 005°24'6 2.8
2014-Oct-14 11:16N 36°08' W 005°26'910.6
2014-Oct-14 10:27N 35°59' W 005°25'5 1.7
2014-Oct-14 07:33N 35°58' W 005°30'1110.6
2014-Oct-14 06:31N 36°08' W 005°26'0 0.3
2014-Oct-14 05:31N 36°08' W 005°26'0 0.0
2014-Oct-14 00:25N 36°08' W 005°26'0 0.0
2014-Oct-13 23:18N 36°08' W 005°26'6 6.0
2014-Oct-13 22:15N 36°02' W 005°23'5 0.9
2014-Oct-13 16:33N 35°59' W 005°28'2 0.7
2014-Oct-13 13:17N 35°59' W 005°26'  
Track history (hours):
 
Tides and Currents Weather Stations Pressure Air Temp Water Temp Dewpoint Dewpoint Depression Visibility Wind Speed Wind Dir Waves Ship Positions

Vronskiy

Last reported at 2014-Oct-23 07:34 UTC. Time now 2014-Oct-23 10:14 UTC.
Position N 35°57' W 005°30'.

Length 131 m; draft 5.2 m.

Type: Passenger vessel. MMSI: 210030000.

Date/timePositionNaut miles runAvg speedWind from/ knotsBaromVisibWave heightAir tempDewpointWater temp
2014-Oct-23 07:34N 35°57' W 005°30'12 1.4
2014-Oct-22 22:33N 36°09' W 005°26'13 2.5
2014-Oct-22 17:21N 35°56' W 005°30'1114.0
2014-Oct-22 16:33N 36°06' W 005°24'3 1.2
2014-Oct-22 14:16N 36°08' W 005°26'6 8.9
2014-Oct-22 13:32N 36°02' W 005°24'5 1.5
2014-Oct-22 10:33N 35°58' W 005°28'10 9.6
2014-Oct-22 09:33N 36°08' W 005°26'0 0.0
2014-Oct-22 08:33N 36°08' W 005°26'0 0.3
2014-Oct-22 07:33N 36°08' W 005°26'1212.1
2014-Oct-22 06:34N 35°56' W 005°28'3 0.3
2014-Oct-21 20:32N 35°59' W 005°28'9 3.0
2014-Oct-21 17:31N 36°08' W 005°26'1111.0
2014-Oct-21 16:33N 35°57' W 005°27'3 1.3
2014-Oct-21 14:07N 35°57' W 005°31'915.3
2014-Oct-21 13:32N 36°04' W 005°24'5 2.7
2014-Oct-21 11:33N 36°09' W 005°25'12 3.1
2014-Oct-21 07:33N 35°57' W 005°30'5 0.3
2014-Oct-20 16:33N 36°01' W 005°26'2 0.7
2014-Oct-20 13:23N 35°59' W 005°25'3 0.9
2014-Oct-20 10:28N 36°01' W 005°26'7 2.4
2014-Oct-20 07:33N 36°08' W 005°26'1111.0
2014-Oct-20 06:34N 35°57' W 005°27'2 0.2
2014-Oct-19 20:33N 35°57' W 005°30'11 5.5
2014-Oct-19 18:30N 36°08' W 005°26'1010.3
2014-Oct-19 17:33N 35°58' W 005°26'4 2.0
2014-Oct-19 15:31N 35°56' W 005°31'1313.4
2014-Oct-19 14:33N 36°09' W 005°25'1 0.5
2014-Oct-19 12:05N 36°08' W 005°26'7 8.3
2014-Oct-19 11:12N 36°01' W 005°23'6 1.6
2014-Oct-19 07:33N 35°58' W 005°29'10 1.9
2014-Oct-19 02:06N 36°08' W 005°26'910.3
2014-Oct-19 01:13N 35°59' W 005°25'4 1.0
2014-Oct-18 20:30N 35°56' W 005°30'1313.0
2014-Oct-18 19:31N 36°09' W 005°26'0 0.1
2014-Oct-18 17:33N 36°09' W 005°26'15 4.7
2014-Oct-18 14:16N 35°54' W 005°31'1014.5
2014-Oct-18 13:33N 36°03' W 005°25'5 4.9
2014-Oct-18 12:28N 36°08' W 005°26'9 7.1
2014-Oct-18 11:13N 35°59' W 005°26'4 1.2
2014-Oct-18 07:33N 35°56' W 005°30'3 0.2
2014-Oct-17 16:33N 35°59' W 005°28'9 8.5
2014-Oct-17 15:31N 36°08' W 005°26'0 0.0
2014-Oct-17 14:21N 36°08' W 005°26'7 8.5
2014-Oct-17 13:31N 36°01' W 005°25'2 0.7
2014-Oct-17 10:33N 35°60' W 005°27'6 1.7
2014-Oct-17 07:16N 36°05' W 005°23'10 1.0
2014-Oct-16 21:14N 35°56' W 005°30'1015.3
2014-Oct-16 20:33N 36°05' W 005°24'4 1.8
2014-Oct-16 18:33N 36°08' W 005°26'7 7.0
2014-Oct-16 17:30N 36°01' W 005°25'6 2.1
2014-Oct-16 14:29N 35°56' W 005°30'1313.8
2014-Oct-16 13:33N 36°08' W 005°24'2 1.5
2014-Oct-16 12:31N 36°08' W 005°26'0 0.0
2014-Oct-16 11:33N 36°08' W 005°26'9 8.8
2014-Oct-16 10:33N 35°59' W 005°25'5 1.6
2014-Oct-16 07:32N 35°56' W 005°30'1313.4
2014-Oct-16 06:33N 36°09' W 005°25'1 0.3
2014-Oct-16 02:29N 36°08' W 005°26'0 0.0
2014-Oct-16 01:17N 36°08' W 005°26'0 0.0
2014-Oct-15 23:17N 36°08' W 005°26'1 1.8
2014-Oct-15 22:33N 36°09' W 005°25'13 2.5
2014-Oct-15 17:17N 35°56' W 005°30'1013.7
2014-Oct-15 16:33N 36°05' W 005°24'4 2.0
2014-Oct-15 14:33N 36°08' W 005°26'1110.9
2014-Oct-15 13:33N 35°57' W 005°27'3 1.0
2014-Oct-15 10:33N 35°60' W 005°26'9 3.1
2014-Oct-15 07:34N 36°09' W 005°26'14 1.2
2014-Oct-14 20:26N 35°56' W 005°30'1314.5
2014-Oct-14 19:33N 36°08' W 005°24'1 0.6
2014-Oct-14 17:21N 36°08' W 005°26'8 8.7
2014-Oct-14 16:24N 35°60' W 005°25'8 3.6
2014-Oct-14 14:16N 35°54' W 005°31'1013.8
2014-Oct-14 13:33N 36°02' W 005°24'6 2.8
2014-Oct-14 11:16N 36°08' W 005°26'910.6
2014-Oct-14 10:27N 35°59' W 005°25'5 1.7
2014-Oct-14 07:33N 35°58' W 005°30'1110.6
2014-Oct-14 06:31N 36°08' W 005°26'0 0.3
2014-Oct-14 05:31N 36°08' W 005°26'0 0.0
2014-Oct-14 00:25N 36°08' W 005°26'0 0.0
2014-Oct-13 23:18N 36°08' W 005°26'6 6.0
2014-Oct-13 22:15N 36°02' W 005°23'5 0.9
2014-Oct-13 16:33N 35°59' W 005°28'2 0.7
2014-Oct-13 13:17N 35°59' W 005°26'  

Dump ship's entire track history